Time;durP1;ratioP1;P1;durP2;ratioP2;P2;SDS_P1;SDS_P2;PMS_P1;PMS_P2;Temp;Humidity;BMP_temperature;BMP_pressure;BME280_temperature;BME280_humidity;BME280_pressure;Samples;Min_cycle;Max_cycle;Signal;HPM_P1;HPM_P2
2023/04/26 00:00:07;;;;;;;;;;;;;;;;;;4345720;33;19947;-81
2023/04/26 00:02:33;;;;;;;;;;;;;;;;;;4346031;33;19935;-81
2023/04/26 00:05:02;;;;;;;;;;;;;;;;;;4346385;33;19989;-81
2023/04/26 00:07:27;;;;;;;;;;;;;;;;;;4345325;33;20242;-82
2023/04/26 00:09:53;;;;;;;;;;;;;;;;;;4346967;33;20333;-81
2023/04/26 00:12:18;;;;;;;;;;;;;;;;;;4347555;33;19938;-82
2023/04/26 00:14:43;;;;;;;;;;;;;;;;;;4346378;33;20323;-81
2023/04/26 00:17:08;;;;;;;;;;;;;;;;;;4349698;33;19998;-81
2023/04/26 00:19:33;;;;;;;;;;;;;;;;;;4346793;33;19938;-82
2023/04/26 00:21:58;;;;;;;;;;;;;;;;;;4348463;33;20273;-81
2023/04/26 00:24:23;;;;;;;;;;;;;;;;;;4348727;33;20370;-82
2023/04/26 00:26:49;;;;;;;;;;;;;;;;;;4351268;33;19931;-81
2023/04/26 00:29:14;;;;;;;;;;;;;;;;;;4358199;33;19949;-82
2023/04/26 00:31:39;;;;;;;;;;;;;;;;;;4358946;33;19945;-81
2023/04/26 00:34:04;;;;;;;;;;;;;;;;;;4357249;33;19930;-84
2023/04/26 00:36:31;;;;;;;;;;;;;;;;;;4349303;33;19998;-82
2023/04/26 00:38:56;;;;;;;;;;;;;;;;;;4346768;33;19935;-82
2023/04/26 00:41:21;;;;;;;;;;;;;;;;;;4348792;33;20103;-82
2023/04/26 00:43:46;;;;;;;;;;;;;;;;;;4347275;33;19934;-81
2023/04/26 00:46:11;;;;;;;;;;;;;;;;;;4348063;33;19954;-81
2023/04/26 00:48:36;;;;;;;;;;;;;;;;;;4345264;33;19946;-81
2023/04/26 00:51:02;;;;;;;;;;;;;;;;;;4346310;33;19977;-82
2023/04/26 00:53:27;;;;;;;;;;;;;;;;;;4346252;33;19976;-82
2023/04/26 00:55:53;;;;;;;;;;;;;;;;;;4346737;33;19934;-82
2023/04/26 00:58:18;;;;;;;;;;;;;;;;;;4344741;33;20316;-82
2023/04/26 01:00:43;;;;;;;;;;;;;;;;;;4346057;33;20338;-82
2023/04/26 01:03:08;;;;;;;;;;;;;;;;;;4346343;33;20268;-82
2023/04/26 01:05:33;;;;;;;;;;;;;;;;;;4355036;33;19948;-81
2023/04/26 01:07:58;;;;;;;;;;;;;;;;;;4355808;33;19945;-81
2023/04/26 01:10:23;;;;;;;;;;;;;;;;;;4347570;33;20237;-81
2023/04/26 01:12:48;;;;;;;;;;;;;;;;;;4347401;33;20014;-81
2023/04/26 01:15:14;;;;;;;;;;;;;;;;;;4347259;33;19939;-82
2023/04/26 01:17:39;;;;;;;;;;;;;;;;;;4358296;32;19950;-81
2023/04/26 01:20:04;;;;;;;;;;;;;;;;;;4355637;32;20288;-82
2023/04/26 01:22:30;;;;;;;;;;;;;;;;;;4358273;33;19943;-81
2023/04/26 01:24:55;;;;;;;;;;;;;;;;;;4355390;33;19944;-82
2023/04/26 01:27:20;;;;;;;;;;;;;;;;;;4349237;33;19973;-82
2023/04/26 01:29:46;;;;;;;;;;;;;;;;;;4348893;33;19949;-82
2023/04/26 01:32:11;;;;;;;;;;;;;;;;;;4347952;32;19966;-82
2023/04/26 01:34:36;;;;;;;;;;;;;;;;;;4347788;33;20019;-81
2023/04/26 01:37:01;;;;;;;;;;;;;;;;;;4347463;33;19957;-81
2023/04/26 01:39:26;;;;;;;;;;;;;;;;;;4347510;32;19947;-81
2023/04/26 01:41:51;;;;;;;;;;;;;;;;;;4347264;33;19939;-82
2023/04/26 01:44:17;;;;;;;;;;;;;;;;;;4348477;33;19969;-81
2023/04/26 01:46:42;;;;;;;;;;;;;;;;;;4347803;33;19969;-82
2023/04/26 01:49:07;;;;;;;;;;;;;;;;;;4346649;33;20278;-82
2023/04/26 01:51:33;;;;;;;;;;;;;;;;;;4348222;33;19936;-82
2023/04/26 01:53:58;;;;;;;;;;;;;;;;;;4347878;32;19939;-83
2023/04/26 01:56:23;;;;;;;;;;;;;;;;;;4354332;33;20018;-82
2023/04/26 01:58:49;;;;;;;;;;;;;;;;;;4364101;32;19938;-82
2023/04/26 02:01:14;;;;;;;;;;;;;;;;;;4349827;33;19973;-83
2023/04/26 02:03:39;;;;;;;;;;;;;;;;;;4348907;33;19954;-82
2023/04/26 02:06:04;;;;;;;;;;;;;;;;;;4347673;33;19939;-82
2023/04/26 02:08:29;;;;;;;;;;;;;;;;;;4348254;33;19939;-82
2023/04/26 02:10:54;;;;;;;;;;;;;;;;;;4349964;33;20045;-81
2023/04/26 02:13:19;;;;;;;;;;;;;;;;;;4350183;33;19949;-82
2023/04/26 02:15:44;;;;;;;;;;;;;;;;;;4349037;33;19939;-82
2023/04/26 02:18:10;;;;;;;;;;;;;;;;;;4347090;33;19957;-82
2023/04/26 02:20:36;;;;;;;;;;;;;;;;;;4352241;32;19934;-82
2023/04/26 02:23:01;;;;;;;;;;;;;;;;;;4349456;33;19977;-82
2023/04/26 02:25:26;;;;;;;;;;;;;;;;;;4348813;33;19935;-82
2023/04/26 02:27:52;;;;;;;;;;;;;;;;;;4350715;33;19947;-82
2023/04/26 02:30:17;;;;;;;;;;;;;;;;;;4353821;33;19961;-82
2023/04/26 02:32:42;;;;;;;;;;;;;;;;;;4357895;33;19953;-82
2023/04/26 02:35:07;;;;;;;;;;;;;;;;;;4349282;33;20316;-82
2023/04/26 02:37:36;;;;;;;;;;;;;;;;;;4347590;33;19994;-81
2023/04/26 02:40:01;;;;;;;;;;;;;;;;;;4347253;33;19978;-82
2023/04/26 02:42:26;;;;;;;;;;;;;;;;;;4349004;33;19988;-82
2023/04/26 02:44:51;;;;;;;;;;;;;;;;;;4346904;33;19943;-81
2023/04/26 02:47:16;;;;;;;;;;;;;;;;;;4350789;33;19969;-81
2023/04/26 02:49:41;;;;;;;;;;;;;;;;;;4347651;33;20300;-81
2023/04/26 02:52:06;;;;;;;;;;;;;;;;;;4346931;33;19980;-81
2023/04/26 02:54:32;;;;;;;;;;;;;;;;;;4346736;33;20248;-82
2023/04/26 02:56:57;;;;;;;;;;;;;;;;;;4345733;33;19977;-82
2023/04/26 02:59:22;;;;;;;;;;;;;;;;;;4345466;33;20335;-82
2023/04/26 03:01:47;;;;;;;;;;;;;;;;;;4346397;33;20383;-82
2023/04/26 03:04:13;;;;;;;;;;;;;;;;;;4346377;33;19962;-82
2023/04/26 03:06:38;;;;;;;;;;;;;;;;;;4345972;33;19969;-81
2023/04/26 03:09:04;;;;;;;;;;;;;;;;;;4349265;33;19961;-81
2023/04/26 03:11:29;;;;;;;;;;;;;;;;;;4353330;33;20376;-82
2023/04/26 03:13:54;;;;;;;;;;;;;;;;;;4353325;33;20313;-81
2023/04/26 03:16:20;;;;;;;;;;;;;;;;;;4348108;33;19943;-82
2023/04/26 03:18:45;;;;;;;;;;;;;;;;;;4345807;33;19949;-81
2023/04/26 03:21:10;;;;;;;;;;;;;;;;;;4345149;32;19939;-81
2023/04/26 03:23:35;;;;;;;;;;;;;;;;;;4345264;33;19942;-82
2023/04/26 03:26:01;;;;;;;;;;;;;;;;;;4345703;33;19989;-81
2023/04/26 03:28:26;;;;;;;;;;;;;;;;;;4345516;33;19986;-82
2023/04/26 03:30:51;;;;;;;;;;;;;;;;;;4346221;33;19974;-82
2023/04/26 03:33:16;;;;;;;;;;;;;;;;;;4348770;33;19939;-82
2023/04/26 03:35:41;;;;;;;;;;;;;;;;;;4357833;33;20292;-82
2023/04/26 03:38:06;;;;;;;;;;;;;;;;;;4346378;33;19951;-82
2023/04/26 03:40:31;;;;;;;;;;;;;;;;;;4346803;33;19943;-83
2023/04/26 03:42:56;;;;;;;;;;;;;;;;;;4345555;33;20366;-82
2023/04/26 03:45:22;;;;;;;;;;;;;;;;;;4347285;33;20055;-83
2023/04/26 03:47:47;;;;;;;;;;;;;;;;;;4345725;33;20268;-83
2023/04/26 03:50:12;;;;;;;;;;;;;;;;;;4345456;33;20329;-81
2023/04/26 03:52:37;;;;;;;;;;;;;;;;;;4345756;33;19939;-82
2023/04/26 03:55:02;;;;;;;;;;;;;;;;;;4346375;33;19994;-81
2023/04/26 03:57:27;;;;;;;;;;;;;;;;;;4345356;33;19947;-82
2023/04/26 03:59:52;;;;;;;;;;;;;;;;;;4351763;33;19923;-82
2023/04/26 04:02:17;;;;;;;;;;;;;;;;;;4356542;33;19949;-82
2023/04/26 04:04:42;;;;;;;;;;;;;;;;;;4348892;33;19947;-82
2023/04/26 04:07:08;;;;;;;;;;;;;;;;;;4349856;33;19999;-81
2023/04/26 04:09:33;;;;;;;;;;;;;;;;;;4358619;33;20308;-82
2023/04/26 04:11:58;;;;;;;;;;;;;;;;;;4352117;33;19943;-79
2023/04/26 04:14:23;;;;;;;;;;;;;;;;;;4353137;33;19954;-82
2023/04/26 04:16:48;;;;;;;;;;;;;;;;;;4346867;33;19982;-83
2023/04/26 04:19:13;;;;;;;;;;;;;;;;;;4344857;33;19942;-83
2023/04/26 04:21:39;;;;;;;;;;;;;;;;;;4345456;33;19939;-83
2023/04/26 04:24:04;;;;;;;;;;;;;;;;;;4344472;33;19931;-83
2023/04/26 04:26:29;;;;;;;;;;;;;;;;;;4346104;33;20129;-82
2023/04/26 04:28:55;;;;;;;;;;;;;;;;;;4345090;33;19994;-83
2023/04/26 04:31:20;;;;;;;;;;;;;;;;;;4345403;33;20017;-83
2023/04/26 04:33:45;;;;;;;;;;;;;;;;;;4346760;33;19942;-83
2023/04/26 04:36:10;;;;;;;;;;;;;;;;;;4344434;33;19938;-83
2023/04/26 04:38:36;;;;;;;;;;;;;;;;;;4346466;33;19981;-83
2023/04/26 04:41:01;;;;;;;;;;;;;;;;;;4344536;33;19997;-81
2023/04/26 04:43:26;;;;;;;;;;;;;;;;;;4346515;33;19938;-82
2023/04/26 04:45:52;;;;;;;;;;;;;;;;;;4344520;33;19939;-82
2023/04/26 04:48:19;;;;;;;;;;;;;;;;;;4346079;33;19946;-82
2023/04/26 04:50:44;;;;;;;;;;;;;;;;;;4352054;33;19931;-81
2023/04/26 04:53:11;;;;;;;;;;;;;;;;;;4356008;32;19942;-82
2023/04/26 04:55:36;;;;;;;;;;;;;;;;;;4350436;33;19935;-82
2023/04/26 04:58:02;;;;;;;;;;;;;;;;;;4348845;33;20256;-82
2023/04/26 05:00:27;;;;;;;;;;;;;;;;;;4348228;33;19935;-83
2023/04/26 05:02:52;;;;;;;;;;;;;;;;;;4347108;33;20229;-83
2023/04/26 05:05:17;;;;;;;;;;;;;;;;;;4348918;33;19939;-83
2023/04/26 05:07:43;;;;;;;;;;;;;;;;;;4348427;33;19978;-84
2023/04/26 05:10:08;;;;;;;;;;;;;;;;;;4347071;32;19949;-81
2023/04/26 05:12:34;;;;;;;;;;;;;;;;;;4350547;33;19946;-83
2023/04/26 05:14:59;;;;;;;;;;;;;;;;;;4351539;32;19930;-80
2023/04/26 05:17:24;;;;;;;;;;;;;;;;;;4350510;33;19943;-80
2023/04/26 05:19:49;;;;;;;;;;;;;;;;;;4348560;33;19950;-80
2023/04/26 05:22:17;;;;;;;;;;;;;;;;;;4348771;33;20296;-81
2023/04/26 05:24:42;;;;;;;;;;;;;;;;;;4346628;33;19995;-80
2023/04/26 05:27:07;;;;;;;;;;;;;;;;;;4349257;33;19943;-81
2023/04/26 05:29:32;;;;;;;;;;;;;;;;;;4346723;33;19943;-81
2023/04/26 05:31:57;;;;;;;;;;;;;;;;;;4347903;33;20002;-82
2023/04/26 05:34:23;;;;;;;;;;;;;;;;;;4347928;33;19950;-82
2023/04/26 05:36:48;;;;;;;;;;;;;;;;;;4346865;33;19931;-82
2023/04/26 05:39:13;;;;;;;;;;;;;;;;;;4349285;33;19942;-81
2023/04/26 05:41:38;;;;;;;;;;;;;;;;;;4349597;33;19938;-80
2023/04/26 05:44:03;;;;;;;;;;;;;;;;;;4350021;33;19968;-79
2023/04/26 05:46:28;;;;;;;;;;;;;;;;;;4335194;33;19971;-81
2023/04/26 05:48:53;;;;;;;;;;;;;;;;;;4343757;33;19924;-82
2023/04/26 05:51:18;;;;;;;;;;;;;;;;;;4336051;33;19939;-81
2023/04/26 05:53:43;;;;;;;;;;;;;;;;;;4334602;33;19998;-81
2023/04/26 05:56:09;;;;;;;;;;;;;;;;;;4333662;33;19943;-81
2023/04/26 05:58:34;;;;;;;;;;;;;;;;;;4332804;33;20242;-83
2023/04/26 06:00:59;;;;;;;;;;;;;;;;;;4332194;33;20367;-82
2023/04/26 06:03:24;;;;;;;;;;;;;;;;;;4333400;33;20309;-82
2023/04/26 06:05:50;;;;;;;;;;;;;;;;;;4338850;33;19943;-82
2023/04/26 06:08:15;;;;;;;;;;;;;;;;;;4341638;33;19947;-81
2023/04/26 06:10:40;;;;;;;;;;;;;;;;;;4333316;33;19970;-82
2023/04/26 06:13:05;;;;;;;;;;;;;;;;;;4332943;33;19954;-81
2023/04/26 06:15:30;;;;;;;;;;;;;;;;;;4331606;33;19981;-81
2023/04/26 06:17:55;;;;;;;;;;;;;;;;;;4332053;33;19934;-80
2023/04/26 06:20:20;;;;;;;;;;;;;;;;;;4334867;33;20026;-82
2023/04/26 06:22:46;;;;;;;;;;;;;;;;;;4336066;33;20214;-81
2023/04/26 06:25:11;;;;;;;;;;;;;;;;;;4333761;33;19936;-80
2023/04/26 06:27:37;;;;;;;;;;;;;;;;;;4332666;33;19943;-80
2023/04/26 06:30:03;;;;;;;;;;;;;;;;;;4333640;33;19943;-81
2023/04/26 06:32:28;;;;;;;;;;;;;;;;;;4333360;33;19950;-81
2023/04/26 06:34:53;;;;;;;;;;;;;;;;;;4332316;33;20368;-81
2023/04/26 06:37:18;;;;;;;;;;;;;;;;;;4332433;33;19971;-81
2023/04/26 06:39:44;;;;;;;;;;;;;;;;;;4335026;33;19939;-81
2023/04/26 06:42:10;;;;;;;;;;;;;;;;;;4345363;33;19949;-81
2023/04/26 06:44:35;;;;;;;;;;;;;;;;;;4331552;33;19939;-80
2023/04/26 06:47:00;;;;;;;;;;;;;;;;;;4333061;33;19935;-81
2023/04/26 06:49:25;;;;;;;;;;;;;;;;;;4333740;33;19967;-83
2023/04/26 06:51:54;;;;;;;;;;;;;;;;;;4337160;33;20181;-81
2023/04/26 06:54:19;;;;;;;;;;;;;;;;;;4333476;33;19949;-81
2023/04/26 06:56:44;;;;;;;;;;;;;;;;;;4332463;33;20217;-82
2023/04/26 06:59:09;;;;;;;;;;;;;;;;;;4332858;33;19935;-81
2023/04/26 07:01:34;;;;;;;;;;;;;;;;;;4331886;33;19942;-81
2023/04/26 07:04:03;;;;;;;;;;;;;;;;;;4331188;33;20009;-81
2023/04/26 07:06:28;;;;;;;;;;;;;;;;;;4332425;33;19970;-81
2023/04/26 07:08:53;;;;;;;;;;;;;;;;;;4334291;33;20360;-81
2023/04/26 07:11:18;;;;;;;;;;;;;;;;;;4332740;33;19974;-79
2023/04/26 07:13:43;;;;;;;;;;;;;;;;;;4331818;33;19985;-80
2023/04/26 07:16:08;;;;;;;;;;;;;;;;;;4332628;33;20301;-80
2023/04/26 07:18:33;;;;;;;;;;;;;;;;;;4330420;33;19982;-80
2023/04/26 07:20:58;;;;;;;;;;;;;;;;;;4335244;33;19949;-81
2023/04/26 07:23:23;;;;;;;;;;;;;;;;;;4333996;33;19950;-80
2023/04/26 07:25:48;;;;;;;;;;;;;;;;;;4332124;33;19935;-81
2023/04/26 07:28:14;;;;;;;;;;;;;;;;;;4331845;33;19995;-81
2023/04/26 07:30:39;;;;;;;;;;;;;;;;;;4338162;33;19947;-81
2023/04/26 07:33:04;;;;;;;;;;;;;;;;;;4334818;33;20325;-81
2023/04/26 07:35:29;;;;;;;;;;;;;;;;;;4331312;33;19987;-81
2023/04/26 07:37:55;;;;;;;;;;;;;;;;;;4330539;33;19974;-82
2023/04/26 07:40:21;;;;;;;;;;;;;;;;;;4332122;33;19967;-81
2023/04/26 07:42:46;;;;;;;;;;;;;;;;;;4331675;33;19953;-80
2023/04/26 07:45:11;;;;;;;;;;;;;;;;;;4329972;33;19994;-80
2023/04/26 07:47:37;;;;;;;;;;;;;;;;;;4330438;33;20322;-80
2023/04/26 07:50:02;;;;;;;;;;;;;;;;;;4331486;33;20365;-81
2023/04/26 07:52:27;;;;;;;;;;;;;;;;;;4329807;33;19939;-81
2023/04/26 07:54:52;;;;;;;;;;;;;;;;;;4331570;33;19939;-81
2023/04/26 07:57:17;;;;;;;;;;;;;;;;;;4330545;33;19981;-81
2023/04/26 07:59:42;;;;;;;;;;;;;;;;;;4332353;33;19966;-81
2023/04/26 08:02:07;;;;;;;;;;;;;;;;;;4329919;33;19955;-80
2023/04/26 08:04:33;;;;;;;;;;;;;;;;;;4331139;33;19974;-80
2023/04/26 08:06:58;;;;;;;;;;;;;;;;;;4331665;33;19973;-81
2023/04/26 08:09:23;;;;;;;;;;;;;;;;;;4331446;33;19974;-81
2023/04/26 08:11:48;;;;;;;;;;;;;;;;;;4334028;33;19989;-81
2023/04/26 08:14:13;;;;;;;;;;;;;;;;;;4336159;33;19935;-80
2023/04/26 08:16:38;;;;;;;;;;;;;;;;;;4334282;33;19939;-80
2023/04/26 08:19:03;;;;;;;;;;;;;;;;;;4329781;33;19945;-80
2023/04/26 08:21:28;;;;;;;;;;;;;;;;;;4329881;33;19939;-80
2023/04/26 08:23:53;;;;;;;;;;;;;;;;;;4330328;33;19947;-80
2023/04/26 08:26:18;;;;;;;;;;;;;;;;;;4337524;33;20222;-80
2023/04/26 08:28:44;;;;;;;;;;;;;;;;;;4338622;33;19943;-81
2023/04/26 08:31:09;;;;;;;;;;;;;;;;;;4337186;33;19973;-81
2023/04/26 08:33:34;;;;;;;;;;;;;;;;;;4336213;33;19939;-81
2023/04/26 08:36:00;;;;;;;;;;;;;;;;;;4334674;33;19949;-81
2023/04/26 08:38:25;;;;;;;;;;;;;;;;;;4334563;33;19965;-81
2023/04/26 08:40:50;;;;;;;;;;;;;;;;;;4335846;33;19975;-81
2023/04/26 08:43:16;;;;;;;;;;;;;;;;;;4333489;33;20026;-81
2023/04/26 08:45:41;;;;;;;;;;;;;;;;;;4334395;33;19993;-81
2023/04/26 08:48:10;;;;;;;;;;;;;;;;;;4332707;33;19939;-81
2023/04/26 08:50:35;;;;;;;;;;;;;;;;;;4334182;33;19949;-82
2023/04/26 08:53:00;;;;;;;;;;;;;;;;;;4337349;33;20011;-83
2023/04/26 08:55:25;;;;;;;;;;;;;;;;;;4346198;33;19965;-82
2023/04/26 08:57:51;;;;;;;;;;;;;;;;;;4348834;33;19997;-82
2023/04/26 09:00:16;;;;;;;;;;;;;;;;;;4335214;33;19957;-80
2023/04/26 09:02:44;;;;;;;;;;;;;;;;;;4320396;33;20313;-82
2023/04/26 09:05:09;;;;;;;;;;;;;;;;;;4320456;33;20363;-82
2023/04/26 09:07:34;;;;;;;;;;;;;;;;;;4320356;33;19946;-81
2023/04/26 09:09:59;;;;;;;;;;;;;;;;;;4319826;33;19959;-81
2023/04/26 09:12:25;;;;;;;;;;;;;;;;;;4320761;33;20273;-81
2023/04/26 09:14:50;;;;;;;;;;;;;;;;;;4333365;33;20478;-82
2023/04/26 09:17:15;;;;;;;;;;;;;;;;;;4334286;33;19959;-81
2023/04/26 09:19:43;;;;;;;;;;;;;;;;;;4337482;33;19972;-81
2023/04/26 09:22:08;;;;;;;;;;;;;;;;;;4339746;33;20290;-82
2023/04/26 09:24:33;;;;;;;;;;;;;;;;;;4338320;33;19935;-83
2023/04/26 09:26:58;;;;;;;;;;;;;;;;;;4338917;33;20028;-81
2023/04/26 09:29:23;;;;;;;;;;;;;;;;;;4322448;33;19947;-81
2023/04/26 09:31:49;;;;;;;;;;;;;;;;;;4332792;33;19950;-81
2023/04/26 09:34:14;;;;;;;;;;;;;;;;;;4332555;33;20328;-81
2023/04/26 09:36:39;;;;;;;;;;;;;;;;;;4333612;33;19935;-81
2023/04/26 09:39:04;;;;;;;;;;;;;;;;;;4333478;33;20299;-82
2023/04/26 09:41:30;;;;;;;;;;;;;;;;;;4319998;33;19953;-82
2023/04/26 09:43:55;;;;;;;;;;;;;;;;;;4333337;33;19935;-81
2023/04/26 09:46:20;;;;;;;;;;;;;;;;;;4334602;33;19959;-81
2023/04/26 09:48:50;;;;;;;;;;;;;;;;;;4333418;33;19954;-80
2023/04/26 09:51:15;;;;;;;;;;;;;;;;;;4320252;33;19932;-82
2023/04/26 09:53:40;;;;;;;;;;;;;;;;;;4320840;33;20036;-82
2023/04/26 09:56:08;;;;;;;;;;;;;;;;;;4320340;33;19978;-80
2023/04/26 09:58:34;;;;;;;;;;;;;;;;;;4333189;33;20309;-80
2023/04/26 10:00:59;;;;;;;;;;;;;;;;;;4320427;33;19982;-80
2023/04/26 10:03:25;;;;;;;;;;;;;;;;;;4333610;33;20324;-82
2023/04/26 10:05:50;;;;;;;;;;;;;;;;;;4319802;33;19951;-81
2023/04/26 10:08:15;;;;;;;;;;;;;;;;;;4320477;33;19946;-80
2023/04/26 10:10:40;;;;;;;;;;;;;;;;;;4319551;33;19974;-80
2023/04/26 10:13:06;;;;;;;;;;;;;;;;;;4333117;33;19959;-81
2023/04/26 10:15:31;;;;;;;;;;;;;;;;;;4320807;33;20017;-81
2023/04/26 10:17:56;;;;;;;;;;;;;;;;;;4338728;33;19935;-80
2023/04/26 10:20:21;;;;;;;;;;;;;;;;;;4337540;33;20399;-80
2023/04/26 10:22:46;;;;;;;;;;;;;;;;;;4319853;33;19949;-80
2023/04/26 10:25:11;;;;;;;;;;;;;;;;;;4332779;33;20261;-80
2023/04/26 10:27:36;;;;;;;;;;;;;;;;;;4319168;33;20035;-80
2023/04/26 10:30:03;;;;;;;;;;;;;;;;;;4332607;33;20009;-79
2023/04/26 10:32:28;;;;;;;;;;;;;;;;;;4318743;33;19965;-82
2023/04/26 10:34:53;;;;;;;;;;;;;;;;;;4332167;33;19950;-80
2023/04/26 10:37:18;;;;;;;;;;;;;;;;;;4319157;33;19945;-80
2023/04/26 10:39:44;;;;;;;;;;;;;;;;;;4332536;33;19947;-80
2023/04/26 10:42:09;;;;;;;;;;;;;;;;;;4319008;33;19938;-81
2023/04/26 10:44:34;;;;;;;;;;;;;;;;;;4334822;33;20368;-81
2023/04/26 10:47:00;;;;;;;;;;;;;;;;;;4337220;33;19962;-81
2023/04/26 10:49:25;;;;;;;;;;;;;;;;;;4334517;33;19936;-81
2023/04/26 10:51:50;;;;;;;;;;;;;;;;;;4319310;33;20403;-81
2023/04/26 10:54:15;;;;;;;;;;;;;;;;;;4321267;33;19942;-79
2023/04/26 10:56:41;;;;;;;;;;;;;;;;;;4340965;33;20345;-80
2023/04/26 10:59:06;;;;;;;;;;;;;;;;;;4319639;33;19931;-81
2023/04/26 11:01:31;;;;;;;;;;;;;;;;;;4334518;33;20309;-81
2023/04/26 11:03:56;;;;;;;;;;;;;;;;;;4332684;33;19957;-81
2023/04/26 11:06:21;;;;;;;;;;;;;;;;;;4332498;33;19971;-80
2023/04/26 11:08:46;;;;;;;;;;;;;;;;;;4333634;33;19977;-81
2023/04/26 11:11:12;;;;;;;;;;;;;;;;;;4319109;33;19970;-81
2023/04/26 11:13:37;;;;;;;;;;;;;;;;;;4332476;33;20313;-83
2023/04/26 11:16:03;;;;;;;;;;;;;;;;;;4333625;33;19949;-81
2023/04/26 11:18:28;;;;;;;;;;;;;;;;;;4335635;33;20309;-81
2023/04/26 11:20:53;;;;;;;;;;;;;;;;;;4341019;33;19943;-79
2023/04/26 11:23:18;;;;;;;;;;;;;;;;;;4324427;33;19936;-80
2023/04/26 11:25:43;;;;;;;;;;;;;;;;;;4337041;33;19999;-81
2023/04/26 11:28:08;;;;;;;;;;;;;;;;;;4320502;33;20333;-81
2023/04/26 11:30:34;;;;;;;;;;;;;;;;;;4333600;33;19954;-80
2023/04/26 11:32:59;;;;;;;;;;;;;;;;;;4331846;33;20364;-81
2023/04/26 11:35:24;;;;;;;;;;;;;;;;;;4331920;33;19939;-80
2023/04/26 11:37:50;;;;;;;;;;;;;;;;;;4331591;33;20329;-81
2023/04/26 11:40:15;;;;;;;;;;;;;;;;;;4331872;33;20314;-80
2023/04/26 11:42:41;;;;;;;;;;;;;;;;;;4317885;33;20316;-80
2023/04/26 11:45:07;;;;;;;;;;;;;;;;;;4331569;33;19990;-81
2023/04/26 11:47:32;;;;;;;;;;;;;;;;;;4330666;33;19935;-79
2023/04/26 11:49:57;;;;;;;;;;;;;;;;;;4330775;33;19953;-81
2023/04/26 11:52:22;;;;;;;;;;;;;;;;;;4331332;33;19986;-80
2023/04/26 11:54:47;;;;;;;;;;;;;;;;;;4331731;33;19939;-80
2023/04/26 11:57:13;;;;;;;;;;;;;;;;;;4331505;33;19943;-81
2023/04/26 11:59:38;;;;;;;;;;;;;;;;;;4332424;33;20332;-80
2023/04/26 12:02:03;;;;;;;;;;;;;;;;;;4317527;33;19940;-81
2023/04/26 12:04:29;;;;;;;;;;;;;;;;;;4330762;33;20355;-80
2023/04/26 12:06:54;;;;;;;;;;;;;;;;;;4318730;33;19997;-80
2023/04/26 12:09:19;;;;;;;;;;;;;;;;;;4331361;33;20237;-80
2023/04/26 12:11:45;;;;;;;;;;;;;;;;;;4330717;33;19994;-81
2023/04/26 12:14:10;;;;;;;;;;;;;;;;;;4317379;33;20017;-80
2023/04/26 12:16:35;;;;;;;;;;;;;;;;;;4331498;33;19939;-79
2023/04/26 12:19:00;;;;;;;;;;;;;;;;;;4332110;33;19959;-79
2023/04/26 12:21:26;;;;;;;;;;;;;;;;;;4332096;33;19935;-79
2023/04/26 12:23:51;;;;;;;;;;;;;;;;;;4319381;33;20335;-79
2023/04/26 12:26:16;;;;;;;;;;;;;;;;;;4333755;33;19943;-80
2023/04/26 12:28:41;;;;;;;;;;;;;;;;;;4332497;33;20010;-80
2023/04/26 12:31:07;;;;;;;;;;;;;;;;;;4334349;33;19944;-80
2023/04/26 12:33:32;;;;;;;;;;;;;;;;;;4334294;33;19935;-79
2023/04/26 12:35:59;;;;;;;;;;;;;;;;;;4331335;33;19966;-81
2023/04/26 12:38:24;;;;;;;;;;;;;;;;;;4317745;33;19987;-79
2023/04/26 12:40:50;;;;;;;;;;;;;;;;;;4331723;33;19940;-80
2023/04/26 12:43:15;;;;;;;;;;;;;;;;;;4330617;33;19979;-78
2023/04/26 12:45:40;;;;;;;;;;;;;;;;;;4317751;33;20154;-80
2023/04/26 12:48:05;;;;;;;;;;;;;;;;;;4331323;33;19949;-80
2023/04/26 12:50:31;;;;;;;;;;;;;;;;;;4318325;33;19974;-81
2023/04/26 12:52:56;;;;;;;;;;;;;;;;;;4325480;33;19962;-79
2023/04/26 12:55:21;;;;;;;;;;;;;;;;;;4320062;33;20001;-79
2023/04/26 12:57:46;;;;;;;;;;;;;;;;;;4330440;33;19938;-80
2023/04/26 13:00:11;;;;;;;;;;;;;;;;;;4330907;33;20416;-80
2023/04/26 13:02:36;;;;;;;;;;;;;;;;;;4317754;33;19946;-80
2023/04/26 13:05:03;;;;;;;;;;;;;;;;;;4318702;33;19974;-80
2023/04/26 13:07:28;;;;;;;;;;;;;;;;;;4330748;33;20046;-78
2023/04/26 13:09:54;;;;;;;;;;;;;;;;;;4331819;33;19954;-79
2023/04/26 13:12:19;;;;;;;;;;;;;;;;;;4317555;33;20276;-79
2023/04/26 13:14:45;;;;;;;;;;;;;;;;;;4333778;33;19974;-80
2023/04/26 13:17:10;;;;;;;;;;;;;;;;;;4319733;33;19998;-80
2023/04/26 13:19:35;;;;;;;;;;;;;;;;;;4320379;33;19938;-80
2023/04/26 13:22:00;;;;;;;;;;;;;;;;;;4333599;33;19935;-80
2023/04/26 13:24:25;;;;;;;;;;;;;;;;;;4334090;33;20253;-80
2023/04/26 13:26:50;;;;;;;;;;;;;;;;;;4319784;33;19955;-79
2023/04/26 13:29:16;;;;;;;;;;;;;;;;;;4334644;33;19939;-79
2023/04/26 13:31:41;;;;;;;;;;;;;;;;;;4319810;33;19939;-79
2023/04/26 13:34:07;;;;;;;;;;;;;;;;;;4334213;33;19951;-80
2023/04/26 13:36:32;;;;;;;;;;;;;;;;;;4319419;33;20420;-80
2023/04/26 13:38:58;;;;;;;;;;;;;;;;;;4319894;33;20226;-79
2023/04/26 13:41:23;;;;;;;;;;;;;;;;;;4320001;33;19939;-79
2023/04/26 13:43:48;;;;;;;;;;;;;;;;;;4339736;33;19935;-79
2023/04/26 13:46:13;;;;;;;;;;;;;;;;;;4324282;33;19954;-79
2023/04/26 13:48:39;;;;;;;;;;;;;;;;;;4333199;33;19935;-78
2023/04/26 13:51:04;;;;;;;;;;;;;;;;;;4335326;33;19940;-79
2023/04/26 13:53:30;;;;;;;;;;;;;;;;;;4333022;33;20237;-78
2023/04/26 13:55:55;;;;;;;;;;;;;;;;;;4333879;33;19936;-79
2023/04/26 13:58:20;;;;;;;;;;;;;;;;;;4333183;33;20005;-79
2023/04/26 14:00:45;;;;;;;;;;;;;;;;;;4333540;33;19953;-79
2023/04/26 14:03:11;;;;;;;;;;;;;;;;;;4319232;33;20269;-79
2023/04/26 14:05:36;;;;;;;;;;;;;;;;;;4319510;33;19931;-79
2023/04/26 14:08:02;;;;;;;;;;;;;;;;;;4333438;33;20296;-80
2023/04/26 14:10:27;;;;;;;;;;;;;;;;;;4333306;33;19943;-80
2023/04/26 14:12:53;;;;;;;;;;;;;;;;;;4334928;33;19967;-77
2023/04/26 14:15:18;;;;;;;;;;;;;;;;;;4333207;33;19951;-78
2023/04/26 14:17:45;;;;;;;;;;;;;;;;;;4332857;33;19939;-79
2023/04/26 14:20:11;;;;;;;;;;;;;;;;;;4332534;33;19959;-79
2023/04/26 14:22:36;;;;;;;;;;;;;;;;;;4332406;33;19957;-79
2023/04/26 14:25:01;;;;;;;;;;;;;;;;;;4319012;33;20022;-80
2023/04/26 14:27:27;;;;;;;;;;;;;;;;;;4332334;33;19986;-80
2023/04/26 14:29:52;;;;;;;;;;;;;;;;;;4333353;33;19998;-79
2023/04/26 14:32:17;;;;;;;;;;;;;;;;;;4320878;33;20321;-78
2023/04/26 14:34:42;;;;;;;;;;;;;;;;;;4333510;33;19939;-79
2023/04/26 14:37:07;;;;;;;;;;;;;;;;;;4334585;33;19935;-80
2023/04/26 14:39:33;;;;;;;;;;;;;;;;;;4318656;33;19943;-80
2023/04/26 14:41:58;;;;;;;;;;;;;;;;;;4318544;33;20002;-79
2023/04/26 14:44:23;;;;;;;;;;;;;;;;;;4332175;33;19939;-80
2023/04/26 14:46:48;;;;;;;;;;;;;;;;;;4333553;33;19949;-80
2023/04/26 14:49:13;;;;;;;;;;;;;;;;;;4333207;33;20331;-79
2023/04/26 14:51:38;;;;;;;;;;;;;;;;;;4332575;33;20289;-81
2023/04/26 14:54:03;;;;;;;;;;;;;;;;;;4318537;33;20343;-81
2023/04/26 14:56:28;;;;;;;;;;;;;;;;;;4332722;33;20356;-81
2023/04/26 14:58:54;;;;;;;;;;;;;;;;;;4334183;33;19935;-81
2023/04/26 15:01:19;;;;;;;;;;;;;;;;;;4320108;33;19939;-80
2023/04/26 15:03:45;;;;;;;;;;;;;;;;;;4336091;33;19987;-80
2023/04/26 15:06:10;;;;;;;;;;;;;;;;;;4336378;33;19943;-80
2023/04/26 15:08:36;;;;;;;;;;;;;;;;;;4333560;33;19995;-80
2023/04/26 15:11:01;;;;;;;;;;;;;;;;;;4332299;33;20301;-80
2023/04/26 15:13:26;;;;;;;;;;;;;;;;;;4332016;33;20294;-80
2023/04/26 15:15:51;;;;;;;;;;;;;;;;;;4332077;33;19986;-80
2023/04/26 15:18:16;;;;;;;;;;;;;;;;;;4324363;33;19961;-79
2023/04/26 15:20:41;;;;;;;;;;;;;;;;;;4337606;33;19954;-79
2023/04/26 15:23:07;;;;;;;;;;;;;;;;;;4332068;33;19973;-80
2023/04/26 15:25:32;;;;;;;;;;;;;;;;;;4331668;33;20325;-80
2023/04/26 15:27:57;;;;;;;;;;;;;;;;;;4332325;33;19935;-80
2023/04/26 15:30:22;;;;;;;;;;;;;;;;;;4332239;33;20010;-79
2023/04/26 15:32:48;;;;;;;;;;;;;;;;;;4331505;33;19943;-80
2023/04/26 15:35:14;;;;;;;;;;;;;;;;;;4331142;33;20014;-80
2023/04/26 15:37:39;;;;;;;;;;;;;;;;;;4317611;33;19999;-81
2023/04/26 15:40:05;;;;;;;;;;;;;;;;;;4332012;33;19971;-80
2023/04/26 15:42:30;;;;;;;;;;;;;;;;;;4331656;33;19965;-79
2023/04/26 15:44:55;;;;;;;;;;;;;;;;;;4331402;33;20373;-80
2023/04/26 15:47:20;;;;;;;;;;;;;;;;;;4331218;33;19951;-80
2023/04/26 15:49:45;;;;;;;;;;;;;;;;;;4318431;33;19935;-79
2023/04/26 15:52:10;;;;;;;;;;;;;;;;;;4332216;33;19939;-80
2023/04/26 15:54:36;;;;;;;;;;;;;;;;;;4331221;33;19943;-81
2023/04/26 15:57:02;;;;;;;;;;;;;;;;;;4330816;33;19939;-81
2023/04/26 15:59:29;;;;;;;;;;;;;;;;;;4318212;33;19965;-79
2023/04/26 16:01:54;;;;;;;;;;;;;;;;;;4332414;33;20003;-80
2023/04/26 16:04:20;;;;;;;;;;;;;;;;;;4331261;33;19943;-80
2023/04/26 16:06:45;;;;;;;;;;;;;;;;;;4332327;33;19958;-80
2023/04/26 16:09:13;;;;;;;;;;;;;;;;;;4331792;33;19934;-79
2023/04/26 16:11:38;;;;;;;;;;;;;;;;;;4331538;33;20365;-80
2023/04/26 16:14:04;;;;;;;;;;;;;;;;;;4331969;33;20344;-80
2023/04/26 16:16:29;;;;;;;;;;;;;;;;;;4319224;33;19939;-80
2023/04/26 16:18:54;;;;;;;;;;;;;;;;;;4331799;33;19940;-80
2023/04/26 16:21:20;;;;;;;;;;;;;;;;;;4318243;33;19939;-81
2023/04/26 16:23:45;;;;;;;;;;;;;;;;;;4321674;33;19939;-79
2023/04/26 16:26:10;;;;;;;;;;;;;;;;;;4331539;33;19977;-80
2023/04/26 16:28:35;;;;;;;;;;;;;;;;;;4331354;33;20019;-80
2023/04/26 16:31:01;;;;;;;;;;;;;;;;;;4331958;33;19967;-80